sensor_id;sensor_type;location;lat;lon;timestamp;pressure;altitude;pressure_sealevel;temperature;humidity
33265;BME280;31404;53.974;-1.086;2022-10-29T00:00:34;101597.69;;;10.78;100.00
33265;BME280;31404;53.974;-1.086;2022-10-29T00:05:37;101605.92;;;9.92;100.00
33265;BME280;31404;53.974;-1.086;2022-10-29T00:10:34;101597.38;;;9.82;100.00
33265;BME280;31404;53.974;-1.086;2022-10-29T00:20:35;101596.48;;;10.09;100.00
33265;BME280;31404;53.974;-1.086;2022-10-29T00:25:35;101598.31;;;9.62;100.00
33265;BME280;31404;53.974;-1.086;2022-10-29T00:30:35;101593.46;;;11.02;100.00
33265;BME280;31404;53.974;-1.086;2022-10-29T00:35:37;101606.41;;;10.04;100.00
33265;BME280;31404;53.974;-1.086;2022-10-29T00:40:36;101605.32;;;9.94;100.00
33265;BME280;31404;53.974;-1.086;2022-10-29T00:45:35;101609.91;;;11.00;100.00
33265;BME280;31404;53.974;-1.086;2022-10-29T00:50:36;101610.38;;;10.82;100.00
33265;BME280;31404;53.974;-1.086;2022-10-29T00:55:37;101610.66;;;11.84;94.03
33265;BME280;31404;53.974;-1.086;2022-10-29T01:00:35;101605.99;;;12.35;92.68
33265;BME280;31404;53.974;-1.086;2022-10-29T01:05:36;101606.12;;;12.25;91.32
33265;BME280;31404;53.974;-1.086;2022-10-29T01:35:43;101577.47;;;12.79;88.35
33265;BME280;31404;53.974;-1.086;2022-10-29T01:50:38;101576.60;;;13.51;82.98
33265;BME280;31404;53.974;-1.086;2022-10-29T01:55:34;101576.12;;;13.16;86.32
33265;BME280;31404;53.974;-1.086;2022-10-29T02:25:34;101562.39;;;10.11;99.10
33265;BME280;31404;53.974;-1.086;2022-10-29T02:30:34;101559.57;;;12.93;88.51
33265;BME280;31404;53.974;-1.086;2022-10-29T02:35:37;101569.27;;;11.41;92.91
33265;BME280;31404;53.974;-1.086;2022-10-29T02:40:36;101563.26;;;12.42;89.44
33265;BME280;31404;53.974;-1.086;2022-10-29T02:45:35;101554.90;;;12.53;89.21
33265;BME280;31404;53.974;-1.086;2022-10-29T02:50:37;101567.38;;;13.25;85.25
33265;BME280;31404;53.974;-1.086;2022-10-29T02:55:37;101552.79;;;12.95;86.08
33265;BME280;31404;53.974;-1.086;2022-10-29T03:00:35;101544.02;;;12.09;90.78
33265;BME280;31404;53.974;-1.086;2022-10-29T03:05:37;101537.10;;;10.24;100.00
33265;BME280;31404;53.974;-1.086;2022-10-29T03:10:35;101524.48;;;11.35;95.53
33265;BME280;31404;53.974;-1.086;2022-10-29T03:15:36;101519.14;;;12.11;89.77
33265;BME280;31404;53.974;-1.086;2022-10-29T03:20:35;101523.24;;;10.46;98.09
33265;BME280;31404;53.974;-1.086;2022-10-29T03:25:35;101516.36;;;11.21;95.28
33265;BME280;31404;53.974;-1.086;2022-10-29T03:30:38;101505.16;;;11.44;93.60
33265;BME280;31404;53.974;-1.086;2022-10-29T03:35:35;101502.21;;;11.82;92.02
33265;BME280;31404;53.974;-1.086;2022-10-29T03:40:37;101516.70;;;13.56;83.99
33265;BME280;31404;53.974;-1.086;2022-10-29T03:45:35;101522.82;;;13.14;84.64
33265;BME280;31404;53.974;-1.086;2022-10-29T03:50:36;101514.51;;;12.54;86.94
33265;BME280;31404;53.974;-1.086;2022-10-29T03:55:34;101504.45;;;11.50;92.33
33265;BME280;31404;53.974;-1.086;2022-10-29T04:00:37;101499.42;;;13.31;84.19
33265;BME280;31404;53.974;-1.086;2022-10-29T04:05:36;101485.72;;;11.42;93.24
33265;BME280;31404;53.974;-1.086;2022-10-29T04:10:36;101468.72;;;10.20;98.16
33265;BME280;31404;53.974;-1.086;2022-10-29T04:15:35;101474.06;;;11.04;94.91
33265;BME280;31404;53.974;-1.086;2022-10-29T04:20:39;101484.11;;;12.06;91.42
33265;BME280;31404;53.974;-1.086;2022-10-29T04:25:35;101490.38;;;11.95;91.02
33265;BME280;31404;53.974;-1.086;2022-10-29T04:30:34;101480.77;;;12.58;88.61
33265;BME280;31404;53.974;-1.086;2022-10-29T04:35:35;101480.48;;;10.59;96.11
33265;BME280;31404;53.974;-1.086;2022-10-29T04:40:34;101482.49;;;10.82;95.67
33265;BME280;31404;53.974;-1.086;2022-10-29T04:45:35;101475.08;;;12.40;89.50
33265;BME280;31404;53.974;-1.086;2022-10-29T04:50:36;101461.51;;;11.01;97.65
33265;BME280;31404;53.974;-1.086;2022-10-29T04:55:36;101443.38;;;10.19;100.00
33265;BME280;31404;53.974;-1.086;2022-10-29T05:00:35;101443.13;;;9.35;100.00
33265;BME280;31404;53.974;-1.086;2022-10-29T05:05:36;101451.78;;;9.32;100.00
33265;BME280;31404;53.974;-1.086;2022-10-29T05:10:38;101443.56;;;8.79;100.00
33265;BME280;31404;53.974;-1.086;2022-10-29T05:15:39;101425.28;;;9.24;100.00
33265;BME280;31404;53.974;-1.086;2022-10-29T05:20:37;101419.96;;;12.00;92.22
33265;BME280;31404;53.974;-1.086;2022-10-29T05:25:39;101426.12;;;10.58;96.31
33265;BME280;31404;53.974;-1.086;2022-10-29T05:30:40;101404.65;;;10.75;97.61
33265;BME280;31404;53.974;-1.086;2022-10-29T05:35:37;101412.02;;;11.79;90.38
33265;BME280;31404;53.974;-1.086;2022-10-29T05:40:37;101432.58;;;12.66;88.07
33265;BME280;31404;53.974;-1.086;2022-10-29T05:45:36;101428.34;;;11.75;90.81
33265;BME280;31404;53.974;-1.086;2022-10-29T05:50:35;101403.34;;;11.81;90.47
33265;BME280;31404;53.974;-1.086;2022-10-29T05:55:36;101399.54;;;12.17;89.72
33265;BME280;31404;53.974;-1.086;2022-10-29T06:00:36;101406.63;;;11.19;94.90
33265;BME280;31404;53.974;-1.086;2022-10-29T06:05:35;101404.27;;;10.74;98.95
33265;BME280;31404;53.974;-1.086;2022-10-29T06:10:36;101409.00;;;11.00;97.94
33265;BME280;31404;53.974;-1.086;2022-10-29T06:15:36;101408.38;;;11.27;97.07
33265;BME280;31404;53.974;-1.086;2022-10-29T06:20:37;101400.24;;;11.15;97.17
33265;BME280;31404;53.974;-1.086;2022-10-29T06:25:37;101406.98;;;11.47;94.59
33265;BME280;31404;53.974;-1.086;2022-10-29T06:30:38;101400.53;;;11.39;93.66
33265;BME280;31404;53.974;-1.086;2022-10-29T06:35:36;101385.84;;;10.64;97.38
33265;BME280;31404;53.974;-1.086;2022-10-29T06:40:36;101387.63;;;10.52;97.74
33265;BME280;31404;53.974;-1.086;2022-10-29T06:45:38;101386.11;;;11.52;95.18
33265;BME280;31404;53.974;-1.086;2022-10-29T06:50:36;101390.26;;;12.40;89.74
33265;BME280;31404;53.974;-1.086;2022-10-29T06:55:35;101394.53;;;11.93;93.27
33265;BME280;31404;53.974;-1.086;2022-10-29T07:00:39;101399.87;;;10.79;98.14
33265;BME280;31404;53.974;-1.086;2022-10-29T07:05:35;101402.93;;;9.12;100.00
33265;BME280;31404;53.974;-1.086;2022-10-29T07:10:39;101391.60;;;10.21;100.00
33265;BME280;31404;53.974;-1.086;2022-10-29T07:15:35;101370.52;;;10.34;100.00
33265;BME280;31404;53.974;-1.086;2022-10-29T07:20:39;101359.90;;;9.66;100.00
33265;BME280;31404;53.974;-1.086;2022-10-29T07:25:37;101337.73;;;9.47;100.00
33265;BME280;31404;53.974;-1.086;2022-10-29T07:30:36;101316.91;;;8.87;100.00
33265;BME280;31404;53.974;-1.086;2022-10-29T07:35:36;101304.16;;;8.10;100.00
33265;BME280;31404;53.974;-1.086;2022-10-29T07:40:37;101307.44;;;9.02;100.00
33265;BME280;31404;53.974;-1.086;2022-10-29T07:45:36;101328.80;;;11.86;100.00
33265;BME280;31404;53.974;-1.086;2022-10-29T07:50:36;101338.70;;;11.80;100.00
33265;BME280;31404;53.974;-1.086;2022-10-29T07:55:38;101314.01;;;12.66;96.44
33265;BME280;31404;53.974;-1.086;2022-10-29T08:00:37;101306.78;;;9.57;100.00
33265;BME280;31404;53.974;-1.086;2022-10-29T08:05:37;101297.18;;;10.79;100.00
33265;BME280;31404;53.974;-1.086;2022-10-29T08:10:35;101297.30;;;11.01;100.00
33265;BME280;31404;53.974;-1.086;2022-10-29T08:15:34;101311.94;;;12.36;99.96
33265;BME280;31404;53.974;-1.086;2022-10-29T08:20:35;101303.78;;;11.70;100.00
33265;BME280;31404;53.974;-1.086;2022-10-29T08:25:34;101309.12;;;11.30;100.00
33265;BME280;31404;53.974;-1.086;2022-10-29T08:30:36;101315.83;;;12.90;98.90
33265;BME280;31404;53.974;-1.086;2022-10-29T08:35:37;101321.48;;;10.41;100.00
33265;BME280;31404;53.974;-1.086;2022-10-29T08:55:37;101343.71;;;12.40;100.00
33265;BME280;31404;53.974;-1.086;2022-10-29T09:00:38;101332.43;;;12.84;100.00
33265;BME280;31404;53.974;-1.086;2022-10-29T09:35:39;101339.41;;;10.11;100.00
33265;BME280;31404;53.974;-1.086;2022-10-29T09:40:37;101321.64;;;9.89;100.00
33265;BME280;31404;53.974;-1.086;2022-10-29T10:00:35;101297.71;;;9.44;100.00
33265;BME280;31404;53.974;-1.086;2022-10-29T10:15:36;101290.38;;;8.56;100.00
33265;BME280;31404;53.974;-1.086;2022-10-29T10:20:39;101287.83;;;7.53;100.00
33265;BME280;31404;53.974;-1.086;2022-10-29T10:25:36;101275.66;;;8.35;100.00
33265;BME280;31404;53.974;-1.086;2022-10-29T10:35:36;101248.16;;;7.28;100.00
33265;BME280;31404;53.974;-1.086;2022-10-29T10:40:34;101245.74;;;8.88;100.00
33265;BME280;31404;53.974;-1.086;2022-10-29T10:45:36;101254.92;;;7.86;100.00
33265;BME280;31404;53.974;-1.086;2022-10-29T10:50:36;101245.02;;;7.96;100.00
33265;BME280;31404;53.974;-1.086;2022-10-29T10:55:36;101235.24;;;8.67;100.00
33265;BME280;31404;53.974;-1.086;2022-10-29T11:00:42;101232.52;;;11.04;100.00
33265;BME280;31404;53.974;-1.086;2022-10-29T11:20:35;101215.20;;;9.21;100.00
33265;BME280;31404;53.974;-1.086;2022-10-29T11:50:39;101148.90;;;8.27;100.00
33265;BME280;31404;53.974;-1.086;2022-10-29T12:35:41;101076.65;;;10.10;100.00
33265;BME280;31404;53.974;-1.086;2022-10-29T12:40:39;101075.32;;;10.50;100.00
33265;BME280;31404;53.974;-1.086;2022-10-29T12:55:35;101073.41;;;11.21;100.00
33265;BME280;31404;53.974;-1.086;2022-10-29T13:05:39;101061.60;;;11.29;100.00
33265;BME280;31404;53.974;-1.086;2022-10-29T13:15:41;101047.75;;;11.00;100.00
33265;BME280;31404;53.974;-1.086;2022-10-29T13:20:38;101037.72;;;10.99;100.00
33265;BME280;31404;53.974;-1.086;2022-10-29T13:30:39;101013.80;;;11.57;100.00
33265;BME280;31404;53.974;-1.086;2022-10-29T13:45:38;100995.66;;;11.94;100.00
33265;BME280;31404;53.974;-1.086;2022-10-29T13:50:37;100983.80;;;10.52;100.00
33265;BME280;31404;53.974;-1.086;2022-10-29T13:55:35;100980.31;;;12.81;100.00
33265;BME280;31404;53.974;-1.086;2022-10-29T14:00:37;100970.80;;;12.98;100.00
33265;BME280;31404;53.974;-1.086;2022-10-29T14:05:39;100955.94;;;12.35;100.00
33265;BME280;31404;53.974;-1.086;2022-10-29T14:15:37;100972.20;;;13.78;100.00
33265;BME280;31404;53.974;-1.086;2022-10-29T14:20:36;100974.00;;;14.04;100.00
33265;BME280;31404;53.974;-1.086;2022-10-29T14:25:35;100983.41;;;14.54;100.00
33265;BME280;31404;53.974;-1.086;2022-10-29T14:30:36;100983.51;;;14.34;100.00
33265;BME280;31404;53.974;-1.086;2022-10-29T14:35:38;100990.18;;;14.95;100.00
33265;BME280;31404;53.974;-1.086;2022-10-29T14:40:35;100995.47;;;15.95;100.00
33265;BME280;31404;53.974;-1.086;2022-10-29T14:45:36;100993.72;;;15.12;100.00
33265;BME280;31404;53.974;-1.086;2022-10-29T14:50:37;100996.05;;;14.88;100.00
33265;BME280;31404;53.974;-1.086;2022-10-29T14:55:38;100999.25;;;15.15;100.00
33265;BME280;31404;53.974;-1.086;2022-10-29T15:00:37;100999.34;;;15.94;100.00
33265;BME280;31404;53.974;-1.086;2022-10-29T15:05:35;100994.68;;;14.81;100.00
33265;BME280;31404;53.974;-1.086;2022-10-29T15:15:39;100972.17;;;13.95;100.00
33265;BME280;31404;53.974;-1.086;2022-10-29T15:20:43;100957.27;;;15.92;100.00
33265;BME280;31404;53.974;-1.086;2022-10-29T15:25:39;100939.54;;;14.55;100.00
33265;BME280;31404;53.974;-1.086;2022-10-29T15:30:37;100932.72;;;14.11;100.00
33265;BME280;31404;53.974;-1.086;2022-10-29T15:45:35;100908.43;;;15.74;100.00
33265;BME280;31404;53.974;-1.086;2022-10-29T15:50:38;100900.81;;;14.38;100.00
33265;BME280;31404;53.974;-1.086;2022-10-29T15:55:37;100909.98;;;15.12;100.00
33265;BME280;31404;53.974;-1.086;2022-10-29T16:00:35;100905.30;;;16.24;100.00
33265;BME280;31404;53.974;-1.086;2022-10-29T16:05:36;100893.64;;;15.41;100.00
33265;BME280;31404;53.974;-1.086;2022-10-29T16:10:37;100887.29;;;14.47;100.00
33265;BME280;31404;53.974;-1.086;2022-10-29T16:15:35;100875.48;;;15.80;100.00
33265;BME280;31404;53.974;-1.086;2022-10-29T16:20:38;100876.95;;;15.84;100.00
33265;BME280;31404;53.974;-1.086;2022-10-29T16:25:35;100879.27;;;15.47;100.00
33265;BME280;31404;53.974;-1.086;2022-10-29T16:30:36;100884.30;;;15.82;100.00
33265;BME280;31404;53.974;-1.086;2022-10-29T16:35:37;100882.43;;;16.05;100.00
33265;BME280;31404;53.974;-1.086;2022-10-29T16:40:38;100885.05;;;15.41;100.00
33265;BME280;31404;53.974;-1.086;2022-10-29T16:45:35;100867.42;;;16.20;100.00
33265;BME280;31404;53.974;-1.086;2022-10-29T16:50:36;100875.94;;;14.11;100.00
33265;BME280;31404;53.974;-1.086;2022-10-29T16:55:36;100856.99;;;16.75;100.00
33265;BME280;31404;53.974;-1.086;2022-10-29T17:00:35;100871.24;;;16.60;100.00
33265;BME280;31404;53.974;-1.086;2022-10-29T17:10:36;100865.39;;;16.23;100.00
33265;BME280;31404;53.974;-1.086;2022-10-29T17:15:38;100861.30;;;16.54;100.00
33265;BME280;31404;53.974;-1.086;2022-10-29T17:20:36;100859.92;;;16.63;100.00
33265;BME280;31404;53.974;-1.086;2022-10-29T17:25:34;100844.06;;;16.44;100.00
33265;BME280;31404;53.974;-1.086;2022-10-29T17:30:38;100837.67;;;15.87;100.00
33265;BME280;31404;53.974;-1.086;2022-10-29T17:35:35;100838.79;;;16.56;100.00
33265;BME280;31404;53.974;-1.086;2022-10-29T17:40:36;100842.90;;;16.23;100.00
33265;BME280;31404;53.974;-1.086;2022-10-29T17:45:37;100836.31;;;15.98;100.00
33265;BME280;31404;53.974;-1.086;2022-10-29T17:50:35;100851.01;;;16.29;100.00
33265;BME280;31404;53.974;-1.086;2022-10-29T17:55:38;100851.55;;;16.23;100.00
33265;BME280;31404;53.974;-1.086;2022-10-29T18:00:36;100854.34;;;16.70;100.00
33265;BME280;31404;53.974;-1.086;2022-10-29T18:05:35;100857.88;;;15.69;100.00
33265;BME280;31404;53.974;-1.086;2022-10-29T18:10:36;100850.56;;;15.70;100.00
33265;BME280;31404;53.974;-1.086;2022-10-29T18:15:35;100841.71;;;15.90;100.00
33265;BME280;31404;53.974;-1.086;2022-10-29T18:20:36;100844.89;;;15.57;100.00
33265;BME280;31404;53.974;-1.086;2022-10-29T18:25:36;100850.11;;;16.34;100.00
33265;BME280;31404;53.974;-1.086;2022-10-29T18:30:37;100867.77;;;15.66;100.00
33265;BME280;31404;53.974;-1.086;2022-10-29T18:35:37;100887.33;;;16.72;100.00
33265;BME280;31404;53.974;-1.086;2022-10-29T18:40:36;100899.42;;;14.91;100.00
33265;BME280;31404;53.974;-1.086;2022-10-29T18:45:37;100901.16;;;15.46;100.00
33265;BME280;31404;53.974;-1.086;2022-10-29T18:50:38;100890.33;;;15.30;100.00
33265;BME280;31404;53.974;-1.086;2022-10-29T18:55:35;100892.12;;;15.74;100.00
33265;BME280;31404;53.974;-1.086;2022-10-29T19:00:36;100901.09;;;15.22;100.00
33265;BME280;31404;53.974;-1.086;2022-10-29T19:05:37;100906.49;;;14.75;100.00
33265;BME280;31404;53.974;-1.086;2022-10-29T19:10:38;100907.85;;;15.36;100.00
33265;BME280;31404;53.974;-1.086;2022-10-29T19:20:35;100920.61;;;15.39;100.00
33265;BME280;31404;53.974;-1.086;2022-10-29T19:25:38;100919.62;;;14.58;100.00
33265;BME280;31404;53.974;-1.086;2022-10-29T19:30:37;100923.71;;;14.49;100.00
33265;BME280;31404;53.974;-1.086;2022-10-29T19:35:35;100929.45;;;15.38;100.00
33265;BME280;31404;53.974;-1.086;2022-10-29T19:40:36;100935.43;;;14.72;100.00
33265;BME280;31404;53.974;-1.086;2022-10-29T19:45:38;100936.54;;;15.39;100.00
33265;BME280;31404;53.974;-1.086;2022-10-29T19:50:37;100925.44;;;15.30;100.00
33265;BME280;31404;53.974;-1.086;2022-10-29T19:55:38;100924.10;;;16.22;100.00
33265;BME280;31404;53.974;-1.086;2022-10-29T20:00:35;100924.05;;;15.41;100.00
33265;BME280;31404;53.974;-1.086;2022-10-29T20:05:36;100930.00;;;14.64;100.00
33265;BME280;31404;53.974;-1.086;2022-10-29T20:10:37;100928.67;;;15.62;100.00
33265;BME280;31404;53.974;-1.086;2022-10-29T20:15:37;100912.70;;;15.37;100.00
33265;BME280;31404;53.974;-1.086;2022-10-29T20:20:36;100917.74;;;14.68;100.00
33265;BME280;31404;53.974;-1.086;2022-10-29T20:25:38;100926.88;;;15.49;100.00
33265;BME280;31404;53.974;-1.086;2022-10-29T20:30:35;100928.87;;;16.56;100.00
33265;BME280;31404;53.974;-1.086;2022-10-29T20:35:35;100934.44;;;15.98;100.00
33265;BME280;31404;53.974;-1.086;2022-10-29T20:40:37;100949.30;;;16.04;100.00
33265;BME280;31404;53.974;-1.086;2022-10-29T20:45:37;100947.41;;;15.98;100.00
33265;BME280;31404;53.974;-1.086;2022-10-29T20:50:36;100949.97;;;14.26;100.00
33265;BME280;31404;53.974;-1.086;2022-10-29T20:55:39;100942.70;;;15.94;100.00
33265;BME280;31404;53.974;-1.086;2022-10-29T21:00:38;100952.29;;;15.80;100.00
33265;BME280;31404;53.974;-1.086;2022-10-29T21:05:36;100940.82;;;15.26;100.00
33265;BME280;31404;53.974;-1.086;2022-10-29T21:10:37;100938.32;;;14.96;100.00
33265;BME280;31404;53.974;-1.086;2022-10-29T21:15:42;100947.85;;;16.05;100.00
33265;BME280;31404;53.974;-1.086;2022-10-29T21:20:38;100955.59;;;16.30;100.00
33265;BME280;31404;53.974;-1.086;2022-10-29T21:25:38;100963.97;;;15.35;100.00
33265;BME280;31404;53.974;-1.086;2022-10-29T21:30:35;100960.92;;;16.43;100.00
33265;BME280;31404;53.974;-1.086;2022-10-29T21:35:35;100952.02;;;16.19;100.00
33265;BME280;31404;53.974;-1.086;2022-10-29T21:40:37;100944.42;;;14.57;100.00
33265;BME280;31404;53.974;-1.086;2022-10-29T21:45:38;100954.95;;;16.57;100.00
33265;BME280;31404;53.974;-1.086;2022-10-29T21:50:35;100958.32;;;17.67;100.00
33265;BME280;31404;53.974;-1.086;2022-10-29T21:55:35;100951.17;;;16.49;100.00
33265;BME280;31404;53.974;-1.086;2022-10-29T22:00:37;100967.28;;;15.89;100.00
33265;BME280;31404;53.974;-1.086;2022-10-29T22:05:34;100963.95;;;17.58;100.00
33265;BME280;31404;53.974;-1.086;2022-10-29T22:10:35;100947.72;;;15.84;100.00
33265;BME280;31404;53.974;-1.086;2022-10-29T22:15:35;100947.42;;;15.38;100.00
33265;BME280;31404;53.974;-1.086;2022-10-29T22:20:37;100953.36;;;16.18;100.00
33265;BME280;31404;53.974;-1.086;2022-10-29T22:25:36;100963.88;;;17.38;100.00
33265;BME280;31404;53.974;-1.086;2022-10-29T22:30:38;100964.80;;;17.06;100.00
33265;BME280;31404;53.974;-1.086;2022-10-29T22:35:36;100980.27;;;16.48;100.00
33265;BME280;31404;53.974;-1.086;2022-10-29T22:45:39;100987.67;;;14.56;100.00
33265;BME280;31404;53.974;-1.086;2022-10-29T22:50:35;100989.79;;;14.76;100.00
33265;BME280;31404;53.974;-1.086;2022-10-29T22:55:37;100993.53;;;15.13;100.00
33265;BME280;31404;53.974;-1.086;2022-10-29T23:00:38;101010.63;;;14.58;100.00
33265;BME280;31404;53.974;-1.086;2022-10-29T23:05:36;101016.14;;;14.41;100.00
33265;BME280;31404;53.974;-1.086;2022-10-29T23:10:39;101019.58;;;15.17;100.00
33265;BME280;31404;53.974;-1.086;2022-10-29T23:15:36;101027.21;;;15.67;100.00
33265;BME280;31404;53.974;-1.086;2022-10-29T23:20:35;101033.03;;;15.94;100.00
33265;BME280;31404;53.974;-1.086;2022-10-29T23:25:35;101036.88;;;15.75;100.00
33265;BME280;31404;53.974;-1.086;2022-10-29T23:30:35;101038.93;;;16.83;100.00
33265;BME280;31404;53.974;-1.086;2022-10-29T23:35:38;101031.25;;;16.83;100.00
33265;BME280;31404;53.974;-1.086;2022-10-29T23:40:38;101032.24;;;16.74;100.00
33265;BME280;31404;53.974;-1.086;2022-10-29T23:45:39;101034.73;;;15.59;100.00
33265;BME280;31404;53.974;-1.086;2022-10-29T23:50:37;101041.71;;;15.39;100.00
33265;BME280;31404;53.974;-1.086;2022-10-29T23:55:38;101051.89;;;14.95;100.00
